DAL1572 KLAX-KSEA
Flight info
| Callsign | DAL1572 |
|---|---|
| Flight time | 2h 4m |
| Altitude | 34000 |
| Route | DARRK3 SCTRR SNS RBL LMT BTG HAWKZ8 |
| Aircraft | A21N/M-SDE2E3FGHIRWXY/LB1 |
Departure
| Time | 2026-04-20 16:37 |
|---|---|
| Airport | Los Angeles International Airport (KLAX) |
Arrival
| Time | 2026-04-20 18:42 |
|---|---|
| Airport | Seattle–Tacoma International Airport (KSEA) |
| Time | Latitude | Longitude | Altitude | Speed | Heading |
|---|---|---|---|---|---|
| 2026-04-20 16:04 | 33.94531 | -118.40786 | 98 ft | 0 kts | 93° |
| 2026-04-20 16:28 | 33.94532 | -118.40808 | 98 ft | 4 kts | 93° |
| 2026-04-20 16:29 | 33.94532 | -118.40839 | 98 ft | 4 kts | 78° |
| 2026-04-20 16:29 | 33.94521 | -118.40865 | 97 ft | 4 kts | 37° |
| 2026-04-20 16:29 | 33.94508 | -118.40874 | 97 ft | 2 kts | 24° |
| 2026-04-20 16:29 | 33.94532 | -118.40869 | 99 ft | 4 kts | 0° |
| 2026-04-20 16:30 | 33.94547 | -118.40871 | 99 ft | 0 kts | 353° |
| 2026-04-20 16:32 | 33.94549 | -118.40871 | 100 ft | 1 kts | 353° |
| 2026-04-20 16:33 | 33.94576 | -118.40879 | 100 ft | 7 kts | 338° |
| 2026-04-20 16:33 | 33.94640 | -118.40901 | 98 ft | 12 kts | 352° |
| 2026-04-20 16:33 | 33.94743 | -118.40907 | 99 ft | 17 kts | 13° |
| 2026-04-20 16:33 | 33.94844 | -118.40811 | 100 ft | 22 kts | 80° |
| 2026-04-20 16:34 | 33.94861 | -118.40610 | 103 ft | 26 kts | 83° |
| 2026-04-20 16:34 | 33.94883 | -118.40393 | 100 ft | 27 kts | 83° |
| 2026-04-20 16:34 | 33.94903 | -118.40199 | 102 ft | 22 kts | 82° |
| 2026-04-20 16:34 | 33.94920 | -118.40032 | 98 ft | 19 kts | 84° |
| 2026-04-20 16:35 | 33.94941 | -118.39935 | 99 ft | 3 kts | 50° |
| 2026-04-20 16:35 | 33.94949 | -118.39926 | 100 ft | 1 kts | 39° |
| 2026-04-20 16:35 | 33.94969 | -118.39916 | 99 ft | 6 kts | 11° |
| 2026-04-20 16:35 | 33.95025 | -118.39928 | 100 ft | 11 kts | 312° |
| 2026-04-20 16:36 | 33.95037 | -118.40006 | 100 ft | 0 kts | 263° |
| 2026-04-20 16:36 | 33.95028 | -118.40090 | 100 ft | 37 kts | 262° |
| 2026-04-20 16:36 | 33.94965 | -118.40708 | 103 ft | 111 kts | 263° |
| 2026-04-20 16:36 | 33.94844 | -118.41859 | 102 ft | 168 kts | 263° |
| 2026-04-20 16:37 | 33.94682 | -118.43362 | 420 ft | 185 kts | 262° |
| 2026-04-20 16:37 | 33.94509 | -118.44892 | 1165 ft | 183 kts | 262° |
| 2026-04-20 16:37 | 33.94367 | -118.46440 | 1814 ft | 190 kts | 264° |
| 2026-04-20 16:37 | 33.94303 | -118.48084 | 2412 ft | 202 kts | 267° |
| 2026-04-20 16:38 | 33.94255 | -118.49826 | 3023 ft | 214 kts | 267° |
| 2026-04-20 16:38 | 33.94157 | -118.51707 | 3465 ft | 237 kts | 264° |
| 2026-04-20 16:38 | 33.93993 | -118.53778 | 3950 ft | 258 kts | 263° |
| 2026-04-20 16:38 | 33.93819 | -118.55969 | 4669 ft | 267 kts | 263° |
| 2026-04-20 16:39 | 33.93643 | -118.58215 | 5536 ft | 270 kts | 263° |
| 2026-04-20 16:39 | 33.93466 | -118.60479 | 6417 ft | 273 kts | 263° |
| 2026-04-20 16:39 | 33.93287 | -118.62764 | 7228 ft | 276 kts | 263° |
| 2026-04-20 16:39 | 33.93104 | -118.65081 | 8039 ft | 278 kts | 262° |
| 2026-04-20 16:40 | 33.92922 | -118.67412 | 8859 ft | 281 kts | 262° |
| 2026-04-20 16:40 | 33.92743 | -118.69734 | 9682 ft | 283 kts | 261° |
| 2026-04-20 16:40 | 33.92559 | -118.72104 | 10355 ft | 291 kts | 261° |
| 2026-04-20 16:40 | 33.92362 | -118.74608 | 10705 ft | 308 kts | 261° |
| 2026-04-20 16:41 | 33.92154 | -118.77244 | 11114 ft | 322 kts | 261° |
| 2026-04-20 16:41 | 33.91943 | -118.79944 | 11677 ft | 327 kts | 261° |
| 2026-04-20 16:41 | 33.91735 | -118.82684 | 11939 ft | 330 kts | 263° |
| 2026-04-20 16:41 | 33.91728 | -118.85458 | 12209 ft | 332 kts | 268° |
| 2026-04-20 16:42 | 33.91816 | -118.88253 | 12839 ft | 336 kts | 269° |
| 2026-04-20 16:42 | 33.91907 | -118.91083 | 13586 ft | 339 kts | 269° |
| 2026-04-20 16:42 | 33.91997 | -118.93931 | 14285 ft | 342 kts | 268° |
| 2026-04-20 16:42 | 33.92083 | -118.96805 | 14971 ft | 344 kts | 268° |
| 2026-04-20 16:43 | 33.92186 | -118.99692 | 15662 ft | 347 kts | 271° |
| 2026-04-20 16:43 | 33.92720 | -119.02552 | 16326 ft | 357 kts | 288° |
| 2026-04-20 16:43 | 33.93914 | -119.05203 | 17007 ft | 364 kts | 297° |
| 2026-04-20 16:43 | 33.95287 | -119.07794 | 17651 ft | 368 kts | 298° |
| 2026-04-20 16:44 | 33.96672 | -119.10401 | 18287 ft | 371 kts | 298° |
| 2026-04-20 16:44 | 33.98043 | -119.13005 | 18850 ft | 374 kts | 297° |
| 2026-04-20 16:44 | 33.99435 | -119.15660 | 19427 ft | 376 kts | 297° |
| 2026-04-20 16:44 | 34.00936 | -119.18266 | 19986 ft | 383 kts | 306° |
| 2026-04-20 16:45 | 34.02940 | -119.20432 | 20544 ft | 391 kts | 319° |
| 2026-04-20 16:45 | 34.05174 | -119.22347 | 21114 ft | 394 kts | 321° |
| 2026-04-20 16:45 | 34.07429 | -119.24235 | 21673 ft | 396 kts | 321° |
| 2026-04-20 16:45 | 34.09694 | -119.26150 | 22218 ft | 398 kts | 320° |
| 2026-04-20 16:46 | 34.11961 | -119.28083 | 22753 ft | 401 kts | 320° |
| 2026-04-20 16:46 | 34.14242 | -119.30040 | 23273 ft | 403 kts | 320° |
| 2026-04-20 16:46 | 34.16533 | -119.32012 | 23767 ft | 406 kts | 320° |
| 2026-04-20 16:46 | 34.18844 | -119.34004 | 24196 ft | 408 kts | 320° |
| 2026-04-20 16:47 | 34.21158 | -119.35999 | 24603 ft | 411 kts | 320° |
| 2026-04-20 16:47 | 34.23489 | -119.38013 | 25005 ft | 413 kts | 320° |
| 2026-04-20 16:47 | 34.25840 | -119.40045 | 25403 ft | 416 kts | 320° |
| 2026-04-20 16:47 | 34.28202 | -119.42088 | 25796 ft | 418 kts | 320° |
| 2026-04-20 16:48 | 34.30577 | -119.44140 | 26187 ft | 421 kts | 320° |
| 2026-04-20 16:48 | 34.32962 | -119.46205 | 26552 ft | 423 kts | 320° |
| 2026-04-20 16:48 | 34.35335 | -119.48261 | 26926 ft | 426 kts | 320° |
| 2026-04-20 16:48 | 34.36969 | -119.49679 | 27178 ft | 427 kts | 320° |
| 2026-04-20 16:49 | 34.40182 | -119.52466 | 27666 ft | 431 kts | 320° |
| 2026-04-20 16:49 | 34.42576 | -119.54644 | 28030 ft | 432 kts | 318° |
| 2026-04-20 16:49 | 34.44967 | -119.56888 | 28383 ft | 435 kts | 318° |
| 2026-04-20 16:49 | 34.47362 | -119.59144 | 28691 ft | 438 kts | 318° |
| 2026-04-20 16:50 | 34.49768 | -119.61412 | 29033 ft | 440 kts | 318° |
| 2026-04-20 16:50 | 34.51403 | -119.62956 | 29245 ft | 441 kts | 318° |
| 2026-04-20 16:50 | 34.53836 | -119.65257 | 29587 ft | 444 kts | 318° |
| 2026-04-20 16:50 | 34.56271 | -119.67559 | 29895 ft | 446 kts | 318° |
| 2026-04-20 16:51 | 34.58699 | -119.69856 | 30189 ft | 448 kts | 318° |
| 2026-04-20 16:51 | 34.61194 | -119.72225 | 30469 ft | 450 kts | 318° |
| 2026-04-20 16:51 | 34.63630 | -119.74532 | 30733 ft | 452 kts | 318° |
| 2026-04-20 16:51 | 34.66142 | -119.76914 | 31001 ft | 453 kts | 318° |
| 2026-04-20 16:52 | 34.68635 | -119.79279 | 31300 ft | 454 kts | 319° |
| 2026-04-20 16:52 | 34.71036 | -119.81551 | 31624 ft | 454 kts | 319° |
| 2026-04-20 16:52 | 34.73525 | -119.83908 | 31993 ft | 453 kts | 319° |
| 2026-04-20 16:52 | 34.76006 | -119.86256 | 32306 ft | 452 kts | 319° |
| 2026-04-20 16:53 | 34.78486 | -119.88608 | 32649 ft | 451 kts | 319° |
| 2026-04-20 16:53 | 34.80954 | -119.90953 | 32937 ft | 450 kts | 319° |
| 2026-04-20 16:53 | 34.83422 | -119.93305 | 33223 ft | 450 kts | 319° |
| 2026-04-20 16:53 | 34.85883 | -119.95655 | 33509 ft | 449 kts | 319° |
| 2026-04-20 16:54 | 34.88331 | -119.98013 | 33804 ft | 448 kts | 319° |
| 2026-04-20 16:54 | 34.90780 | -120.00366 | 34041 ft | 449 kts | 319° |
| 2026-04-20 16:54 | 34.95711 | -120.05045 | 34064 ft | 448 kts | 319° |
| 2026-04-20 16:55 | 35.00618 | -120.09734 | 34051 ft | 448 kts | 319° |
| 2026-04-20 16:55 | 35.05501 | -120.14416 | 34047 ft | 449 kts | 319° |
| 2026-04-20 16:56 | 35.10411 | -120.19128 | 34057 ft | 449 kts | 319° |
| 2026-04-20 16:56 | 35.15320 | -120.23847 | 34058 ft | 449 kts | 319° |
| 2026-04-20 16:57 | 35.20268 | -120.28465 | 34053 ft | 449 kts | 320° |
| 2026-04-20 16:57 | 35.25271 | -120.33036 | 34077 ft | 449 kts | 320° |
| 2026-04-20 16:58 | 35.30280 | -120.37632 | 34066 ft | 449 kts | 320° |
| 2026-04-20 16:58 | 35.35280 | -120.42218 | 34077 ft | 450 kts | 319° |
| 2026-04-20 16:59 | 35.40283 | -120.46805 | 34071 ft | 449 kts | 320° |
| 2026-04-20 16:59 | 35.45274 | -120.51391 | 34089 ft | 448 kts | 319° |
| 2026-04-20 17:00 | 35.52763 | -120.58287 | 34104 ft | 448 kts | 320° |
| 2026-04-20 17:01 | 35.57820 | -120.62770 | 34113 ft | 449 kts | 320° |
| 2026-04-20 17:01 | 35.62888 | -120.67242 | 34103 ft | 449 kts | 320° |
| 2026-04-20 17:02 | 35.67946 | -120.71713 | 34102 ft | 447 kts | 320° |
| 2026-04-20 17:02 | 35.72961 | -120.76164 | 34098 ft | 448 kts | 320° |
| 2026-04-20 17:03 | 35.78000 | -120.80645 | 34094 ft | 448 kts | 320° |
| 2026-04-20 17:03 | 35.83054 | -120.85140 | 34094 ft | 447 kts | 320° |
| 2026-04-20 17:04 | 35.88102 | -120.89633 | 34072 ft | 447 kts | 320° |
| 2026-04-20 17:04 | 35.93157 | -120.94140 | 34070 ft | 447 kts | 320° |
| 2026-04-20 17:05 | 35.98204 | -120.98653 | 34084 ft | 449 kts | 319° |
| 2026-04-20 17:05 | 36.03264 | -121.03190 | 34064 ft | 449 kts | 319° |
| 2026-04-20 17:06 | 36.08315 | -121.07735 | 34057 ft | 450 kts | 319° |
| 2026-04-20 17:06 | 36.13388 | -121.12274 | 34059 ft | 450 kts | 319° |
| 2026-04-20 17:07 | 36.18451 | -121.16829 | 34056 ft | 450 kts | 319° |
| 2026-04-20 17:07 | 36.23512 | -121.21392 | 34047 ft | 450 kts | 319° |
| 2026-04-20 17:08 | 36.28536 | -121.25929 | 34046 ft | 451 kts | 319° |
| 2026-04-20 17:08 | 36.33610 | -121.30513 | 34046 ft | 451 kts | 319° |
| 2026-04-20 17:09 | 36.38684 | -121.35125 | 34041 ft | 451 kts | 319° |
| 2026-04-20 17:09 | 36.43751 | -121.39730 | 34039 ft | 451 kts | 319° |
| 2026-04-20 17:10 | 36.48824 | -121.44321 | 34051 ft | 452 kts | 319° |
| 2026-04-20 17:10 | 36.53902 | -121.48941 | 34043 ft | 452 kts | 318° |
| 2026-04-20 17:11 | 36.58945 | -121.53537 | 34019 ft | 452 kts | 318° |
| 2026-04-20 17:11 | 36.64092 | -121.58154 | 34013 ft | 456 kts | 322° |
| 2026-04-20 17:11 | 36.66934 | -121.59968 | 34014 ft | 463 kts | 334° |
| 2026-04-20 17:12 | 36.70010 | -121.61048 | 34013 ft | 470 kts | 345° |
| 2026-04-20 17:12 | 36.76521 | -121.62183 | 34013 ft | 472 kts | 348° |
| 2026-04-20 17:13 | 36.83037 | -121.63256 | 34029 ft | 472 kts | 348° |
| 2026-04-20 17:13 | 36.89548 | -121.64404 | 34033 ft | 473 kts | 347° |
| 2026-04-20 17:14 | 36.96064 | -121.65567 | 34022 ft | 473 kts | 347° |
| 2026-04-20 17:14 | 37.02578 | -121.66722 | 34032 ft | 473 kts | 347° |
| 2026-04-20 17:15 | 37.09118 | -121.67886 | 34029 ft | 474 kts | 347° |
| 2026-04-20 17:15 | 37.15656 | -121.69052 | 34026 ft | 475 kts | 347° |
| 2026-04-20 17:16 | 37.22159 | -121.70211 | 34025 ft | 475 kts | 347° |
| 2026-04-20 17:16 | 37.28714 | -121.71381 | 34010 ft | 477 kts | 347° |
| 2026-04-20 17:17 | 37.35293 | -121.72556 | 34002 ft | 478 kts | 347° |
| 2026-04-20 17:17 | 37.41872 | -121.73735 | 34001 ft | 477 kts | 347° |
| 2026-04-20 17:18 | 37.48464 | -121.74917 | 34010 ft | 478 kts | 347° |
| 2026-04-20 17:18 | 37.55051 | -121.76100 | 33977 ft | 479 kts | 347° |
| 2026-04-20 17:19 | 37.61657 | -121.77280 | 33975 ft | 479 kts | 347° |
| 2026-04-20 17:19 | 37.68272 | -121.78481 | 33980 ft | 481 kts | 347° |
| 2026-04-20 17:20 | 37.74890 | -121.79683 | 33980 ft | 481 kts | 347° |
| 2026-04-20 17:20 | 37.81542 | -121.80886 | 33992 ft | 482 kts | 347° |
| 2026-04-20 17:21 | 37.88191 | -121.82091 | 33992 ft | 483 kts | 346° |
| 2026-04-20 17:21 | 37.94824 | -121.83286 | 33983 ft | 483 kts | 346° |
| 2026-04-20 17:22 | 38.01462 | -121.84483 | 34010 ft | 483 kts | 346° |
| 2026-04-20 17:22 | 38.08133 | -121.85701 | 33998 ft | 484 kts | 346° |
| 2026-04-20 17:23 | 38.14813 | -121.86928 | 33989 ft | 485 kts | 346° |
| 2026-04-20 17:23 | 38.21485 | -121.88161 | 33981 ft | 485 kts | 346° |
| 2026-04-20 17:24 | 38.28165 | -121.89391 | 33983 ft | 485 kts | 346° |
| 2026-04-20 17:24 | 38.34851 | -121.90623 | 33996 ft | 485 kts | 346° |
| 2026-04-20 17:25 | 38.41533 | -121.91856 | 33992 ft | 487 kts | 346° |
| 2026-04-20 17:25 | 38.48222 | -121.93089 | 33999 ft | 489 kts | 346° |
| 2026-04-20 17:26 | 38.54948 | -121.94334 | 33999 ft | 489 kts | 346° |
| 2026-04-20 17:26 | 38.61687 | -121.95578 | 34001 ft | 490 kts | 346° |
| 2026-04-20 17:27 | 38.68450 | -121.96833 | 33988 ft | 490 kts | 346° |
| 2026-04-20 17:27 | 38.75203 | -121.98092 | 33989 ft | 490 kts | 346° |
| 2026-04-20 17:28 | 38.81960 | -121.99351 | 33997 ft | 491 kts | 346° |
| 2026-04-20 17:28 | 38.88742 | -122.00614 | 33995 ft | 491 kts | 346° |
| 2026-04-20 17:29 | 38.95510 | -122.01879 | 34006 ft | 491 kts | 346° |
| 2026-04-20 17:29 | 39.02250 | -122.03144 | 33991 ft | 493 kts | 346° |
| 2026-04-20 17:30 | 39.09045 | -122.04415 | 33988 ft | 493 kts | 346° |
| 2026-04-20 17:30 | 39.15832 | -122.05696 | 34001 ft | 494 kts | 346° |
| 2026-04-20 17:31 | 39.22650 | -122.06981 | 33994 ft | 494 kts | 346° |
| 2026-04-20 17:31 | 39.29480 | -122.08268 | 33995 ft | 497 kts | 346° |
| 2026-04-20 17:32 | 39.36329 | -122.09564 | 33990 ft | 498 kts | 346° |
| 2026-04-20 17:32 | 39.43198 | -122.10865 | 33983 ft | 499 kts | 346° |
| 2026-04-20 17:33 | 39.50062 | -122.12171 | 33997 ft | 499 kts | 346° |
| 2026-04-20 17:33 | 39.56929 | -122.13480 | 33986 ft | 500 kts | 345° |
| 2026-04-20 17:34 | 39.63817 | -122.14790 | 33983 ft | 500 kts | 345° |
| 2026-04-20 17:34 | 39.70697 | -122.16108 | 33988 ft | 500 kts | 345° |
| 2026-04-20 17:35 | 39.77579 | -122.17423 | 33982 ft | 499 kts | 345° |
| 2026-04-20 17:35 | 39.83290 | -122.18520 | 33977 ft | 500 kts | 345° |
| 2026-04-20 17:36 | 39.91291 | -122.20056 | 33979 ft | 500 kts | 345° |
| 2026-04-20 17:36 | 39.98172 | -122.21377 | 33977 ft | 500 kts | 345° |
| 2026-04-20 17:37 | 40.03897 | -122.22488 | 33974 ft | 500 kts | 345° |
| 2026-04-20 17:37 | 40.10854 | -122.23301 | 34012 ft | 510 kts | 359° |
| 2026-04-20 17:38 | 40.17893 | -122.21790 | 34033 ft | 514 kts | 8° |
| 2026-04-20 17:38 | 40.24929 | -122.20010 | 34028 ft | 514 kts | 7° |
| 2026-04-20 17:39 | 40.31963 | -122.18337 | 34010 ft | 514 kts | 7° |
| 2026-04-20 17:39 | 40.38986 | -122.16646 | 33977 ft | 510 kts | 7° |
| 2026-04-20 17:40 | 40.45961 | -122.14956 | 34006 ft | 511 kts | 7° |
| 2026-04-20 17:40 | 40.52930 | -122.13269 | 33998 ft | 513 kts | 7° |
| 2026-04-20 17:41 | 40.59944 | -122.11556 | 33990 ft | 513 kts | 7° |
| 2026-04-20 17:41 | 40.66945 | -122.09847 | 33987 ft | 511 kts | 7° |
| 2026-04-20 17:42 | 40.73966 | -122.08133 | 33973 ft | 513 kts | 7° |
| 2026-04-20 17:42 | 40.80987 | -122.06405 | 33945 ft | 513 kts | 7° |
| 2026-04-20 17:43 | 40.87965 | -122.04673 | 33939 ft | 513 kts | 7° |
| 2026-04-20 17:43 | 40.95030 | -122.02946 | 33954 ft | 513 kts | 7° |
| 2026-04-20 17:44 | 41.02002 | -122.01237 | 33952 ft | 513 kts | 7° |
| 2026-04-20 17:44 | 41.09031 | -121.99497 | 33977 ft | 514 kts | 7° |
| 2026-04-20 17:45 | 41.16052 | -121.97751 | 33949 ft | 512 kts | 7° |
| 2026-04-20 17:45 | 41.23054 | -121.96010 | 33953 ft | 511 kts | 6° |
| 2026-04-20 17:46 | 41.30047 | -121.94271 | 33966 ft | 511 kts | 6° |
| 2026-04-20 17:46 | 41.37032 | -121.92537 | 33950 ft | 511 kts | 7° |
| 2026-04-20 17:47 | 41.44007 | -121.90797 | 33936 ft | 509 kts | 6° |
| 2026-04-20 17:47 | 41.50965 | -121.89060 | 33959 ft | 510 kts | 6° |
| 2026-04-20 17:48 | 41.57939 | -121.87303 | 33939 ft | 514 kts | 6° |
| 2026-04-20 17:48 | 41.64965 | -121.85525 | 33925 ft | 514 kts | 6° |
| 2026-04-20 17:49 | 41.71985 | -121.83734 | 33950 ft | 514 kts | 6° |
| 2026-04-20 17:49 | 41.79076 | -121.81957 | 33906 ft | 520 kts | 6° |
| 2026-04-20 17:50 | 41.86206 | -121.80177 | 33892 ft | 521 kts | 7° |
| 2026-04-20 17:50 | 41.93339 | -121.78364 | 33896 ft | 521 kts | 6° |
| 2026-04-20 17:51 | 42.00438 | -121.76561 | 33912 ft | 519 kts | 6° |
| 2026-04-20 17:51 | 42.07509 | -121.74759 | 33933 ft | 519 kts | 6° |
| 2026-04-20 17:52 | 42.14656 | -121.73202 | 33919 ft | 513 kts | 357° |
| 2026-04-20 17:52 | 42.18130 | -121.73343 | 33920 ft | 503 kts | 346° |
| 2026-04-20 17:52 | 42.21578 | -121.74038 | 33842 ft | 500 kts | 342° |
| 2026-04-20 17:53 | 42.28381 | -121.75670 | 33852 ft | 496 kts | 342° |
| 2026-04-20 17:53 | 42.35209 | -121.77260 | 33859 ft | 499 kts | 342° |
| 2026-04-20 17:54 | 42.42083 | -121.78825 | 33851 ft | 500 kts | 342° |
| 2026-04-20 17:54 | 42.48946 | -121.80394 | 33837 ft | 501 kts | 342° |
| 2026-04-20 17:55 | 42.55826 | -121.81967 | 33861 ft | 502 kts | 342° |
| 2026-04-20 17:55 | 42.62732 | -121.83557 | 33831 ft | 503 kts | 342° |
| 2026-04-20 17:56 | 42.69596 | -121.85141 | 33838 ft | 499 kts | 342° |
| 2026-04-20 17:56 | 42.76407 | -121.86729 | 33857 ft | 501 kts | 342° |
| 2026-04-20 17:57 | 42.83338 | -121.88319 | 33849 ft | 502 kts | 343° |
| 2026-04-20 17:57 | 42.90225 | -121.89900 | 33848 ft | 502 kts | 342° |
| 2026-04-20 17:58 | 42.97070 | -121.91492 | 33861 ft | 503 kts | 342° |
| 2026-04-20 17:58 | 43.03993 | -121.93108 | 33824 ft | 503 kts | 342° |
| 2026-04-20 17:59 | 43.10850 | -121.94705 | 33870 ft | 500 kts | 342° |
| 2026-04-20 17:59 | 43.17721 | -121.96317 | 33850 ft | 501 kts | 342° |
| 2026-04-20 18:00 | 43.24594 | -121.97928 | 33849 ft | 500 kts | 342° |
| 2026-04-20 18:00 | 43.31395 | -121.99515 | 33864 ft | 494 kts | 342° |
| 2026-04-20 18:01 | 43.38251 | -122.01136 | 33860 ft | 503 kts | 342° |
| 2026-04-20 18:01 | 43.45159 | -122.02758 | 33823 ft | 504 kts | 342° |
| 2026-04-20 18:02 | 43.52051 | -122.04393 | 33851 ft | 502 kts | 342° |
| 2026-04-20 18:02 | 43.58935 | -122.06025 | 33837 ft | 503 kts | 342° |
| 2026-04-20 18:03 | 43.65831 | -122.07672 | 33845 ft | 502 kts | 342° |
| 2026-04-20 18:03 | 43.72648 | -122.09328 | 33849 ft | 498 kts | 342° |
| 2026-04-20 18:04 | 43.79517 | -122.10979 | 33839 ft | 505 kts | 342° |
| 2026-04-20 18:04 | 43.86448 | -122.12645 | 33803 ft | 505 kts | 342° |
| 2026-04-20 18:05 | 43.96823 | -122.15071 | 33841 ft | 505 kts | 342° |
| 2026-04-20 18:05 | 44.03738 | -122.16721 | 33821 ft | 501 kts | 342° |
| 2026-04-20 18:06 | 44.10577 | -122.18380 | 33819 ft | 501 kts | 342° |
| 2026-04-20 18:06 | 44.17483 | -122.20056 | 33832 ft | 504 kts | 342° |
| 2026-04-20 18:07 | 44.24389 | -122.21717 | 33822 ft | 503 kts | 342° |
| 2026-04-20 18:07 | 44.31244 | -122.23378 | 33814 ft | 503 kts | 342° |
| 2026-04-20 18:08 | 44.38148 | -122.25059 | 33814 ft | 498 kts | 342° |
| 2026-04-20 18:08 | 44.44897 | -122.26703 | 33813 ft | 491 kts | 342° |
| 2026-04-20 18:09 | 44.51691 | -122.28368 | 33856 ft | 500 kts | 342° |
| 2026-04-20 18:09 | 44.58581 | -122.30060 | 33837 ft | 503 kts | 342° |
| 2026-04-20 18:10 | 44.65466 | -122.31749 | 33826 ft | 502 kts | 342° |
| 2026-04-20 18:10 | 44.72338 | -122.33437 | 33834 ft | 501 kts | 342° |
| 2026-04-20 18:11 | 44.79181 | -122.35119 | 33819 ft | 494 kts | 342° |
| 2026-04-20 18:11 | 44.85912 | -122.36790 | 33824 ft | 494 kts | 342° |
| 2026-04-20 18:12 | 44.92724 | -122.38478 | 33866 ft | 499 kts | 342° |
| 2026-04-20 18:12 | 44.99583 | -122.40191 | 33848 ft | 500 kts | 342° |
| 2026-04-20 18:13 | 45.06436 | -122.41895 | 33842 ft | 501 kts | 342° |
| 2026-04-20 18:13 | 45.13286 | -122.43619 | 33838 ft | 499 kts | 341° |
| 2026-04-20 18:14 | 45.20114 | -122.45332 | 33826 ft | 496 kts | 342° |
| 2026-04-20 18:14 | 45.26876 | -122.47020 | 33840 ft | 492 kts | 342° |
| 2026-04-20 18:15 | 45.33587 | -122.48705 | 33764 ft | 488 kts | 342° |
| 2026-04-20 18:15 | 45.36922 | -122.49546 | 33457 ft | 479 kts | 342° |
| 2026-04-20 18:15 | 45.40187 | -122.50376 | 33171 ft | 474 kts | 342° |
| 2026-04-20 18:16 | 45.43381 | -122.51190 | 32901 ft | 471 kts | 343° |
| 2026-04-20 18:16 | 45.46594 | -122.52000 | 32633 ft | 468 kts | 343° |
| 2026-04-20 18:16 | 45.49794 | -122.52810 | 32380 ft | 465 kts | 343° |
| 2026-04-20 18:16 | 45.52970 | -122.53630 | 32121 ft | 462 kts | 343° |
| 2026-04-20 18:17 | 45.56123 | -122.54445 | 31889 ft | 459 kts | 344° |
| 2026-04-20 18:17 | 45.59246 | -122.55246 | 31641 ft | 454 kts | 345° |
| 2026-04-20 18:17 | 45.62352 | -122.56038 | 31388 ft | 451 kts | 346° |
| 2026-04-20 18:17 | 45.65421 | -122.56816 | 31138 ft | 448 kts | 346° |
| 2026-04-20 18:18 | 45.68483 | -122.57598 | 30909 ft | 445 kts | 346° |
| 2026-04-20 18:18 | 45.71521 | -122.58374 | 30599 ft | 441 kts | 347° |
| 2026-04-20 18:18 | 45.74528 | -122.59127 | 30181 ft | 437 kts | 347° |
| 2026-04-20 18:18 | 45.77517 | -122.59870 | 29686 ft | 434 kts | 348° |
| 2026-04-20 18:19 | 45.80494 | -122.60598 | 29141 ft | 431 kts | 349° |
| 2026-04-20 18:19 | 45.83438 | -122.61317 | 28627 ft | 427 kts | 349° |
| 2026-04-20 18:19 | 45.86351 | -122.62034 | 28172 ft | 423 kts | 349° |
| 2026-04-20 18:19 | 45.89240 | -122.62744 | 27702 ft | 418 kts | 349° |
| 2026-04-20 18:20 | 45.92097 | -122.63450 | 27230 ft | 415 kts | 349° |
| 2026-04-20 18:20 | 45.94935 | -122.64161 | 26760 ft | 413 kts | 349° |
| 2026-04-20 18:20 | 45.97729 | -122.64858 | 26267 ft | 412 kts | 349° |
| 2026-04-20 18:20 | 46.00579 | -122.65572 | 25789 ft | 410 kts | 349° |
| 2026-04-20 18:21 | 46.03383 | -122.66266 | 25334 ft | 408 kts | 349° |
| 2026-04-20 18:21 | 46.06172 | -122.66960 | 24876 ft | 406 kts | 349° |
| 2026-04-20 18:21 | 46.08954 | -122.67648 | 24402 ft | 404 kts | 350° |
| 2026-04-20 18:21 | 46.10790 | -122.68041 | 24113 ft | 402 kts | 351° |
| 2026-04-20 18:22 | 46.14433 | -122.68759 | 23500 ft | 395 kts | 352° |
| 2026-04-20 18:22 | 46.17141 | -122.69289 | 22977 ft | 389 kts | 351° |
| 2026-04-20 18:22 | 46.19807 | -122.69811 | 22485 ft | 383 kts | 351° |
| 2026-04-20 18:22 | 46.22428 | -122.70327 | 22033 ft | 377 kts | 351° |
| 2026-04-20 18:23 | 46.24177 | -122.70672 | 21706 ft | 374 kts | 351° |
| 2026-04-20 18:23 | 46.27572 | -122.71342 | 21125 ft | 373 kts | 351° |
| 2026-04-20 18:23 | 46.29303 | -122.71684 | 20846 ft | 372 kts | 352° |
| 2026-04-20 18:23 | 46.31832 | -122.72161 | 20434 ft | 368 kts | 354° |
| 2026-04-20 18:24 | 46.34371 | -122.72342 | 20007 ft | 362 kts | 358° |
| 2026-04-20 18:24 | 46.36865 | -122.72433 | 19580 ft | 356 kts | 359° |
| 2026-04-20 18:24 | 46.39322 | -122.72512 | 19187 ft | 350 kts | 359° |
| 2026-04-20 18:24 | 46.41735 | -122.72595 | 18787 ft | 343 kts | 359° |
| 2026-04-20 18:25 | 46.44098 | -122.72679 | 18417 ft | 337 kts | 359° |
| 2026-04-20 18:25 | 46.46439 | -122.72762 | 18035 ft | 336 kts | 359° |
| 2026-04-20 18:25 | 46.48802 | -122.72843 | 17659 ft | 348 kts | 359° |
| 2026-04-20 18:25 | 46.51232 | -122.72929 | 17300 ft | 347 kts | 359° |
| 2026-04-20 18:26 | 46.53658 | -122.73015 | 16951 ft | 350 kts | 359° |
| 2026-04-20 18:26 | 46.56079 | -122.73100 | 16587 ft | 345 kts | 359° |
| 2026-04-20 18:26 | 46.58498 | -122.73189 | 16211 ft | 346 kts | 359° |
| 2026-04-20 18:26 | 46.60884 | -122.73277 | 15839 ft | 340 kts | 359° |
| 2026-04-20 18:27 | 46.63229 | -122.73363 | 15493 ft | 334 kts | 359° |
| 2026-04-20 18:27 | 46.65534 | -122.73447 | 15125 ft | 328 kts | 359° |
| 2026-04-20 18:27 | 46.67796 | -122.73530 | 14775 ft | 322 kts | 360° |
| 2026-04-20 18:27 | 46.70024 | -122.73612 | 14401 ft | 318 kts | 360° |
| 2026-04-20 18:28 | 46.72220 | -122.73692 | 14036 ft | 315 kts | 0° |
| 2026-04-20 18:28 | 46.74382 | -122.73770 | 13713 ft | 314 kts | 0° |
| 2026-04-20 18:28 | 46.76554 | -122.73845 | 13324 ft | 310 kts | 1° |
| 2026-04-20 18:28 | 46.78662 | -122.73446 | 12927 ft | 304 kts | 24° |
| 2026-04-20 18:29 | 46.80439 | -122.71870 | 12555 ft | 292 kts | 44° |
| 2026-04-20 18:29 | 46.81971 | -122.69964 | 12226 ft | 295 kts | 46° |
| 2026-04-20 18:29 | 46.83512 | -122.68034 | 11845 ft | 290 kts | 45° |
| 2026-04-20 18:29 | 46.85029 | -122.66068 | 11497 ft | 288 kts | 47° |
| 2026-04-20 18:30 | 46.86468 | -122.64068 | 11134 ft | 283 kts | 48° |
| 2026-04-20 18:30 | 46.87899 | -122.62083 | 10751 ft | 283 kts | 48° |
| 2026-04-20 18:30 | 46.89323 | -122.60115 | 10378 ft | 281 kts | 47° |
| 2026-04-20 18:30 | 46.90737 | -122.58154 | 10035 ft | 278 kts | 49° |
| 2026-04-20 18:31 | 46.92089 | -122.56151 | 9638 ft | 276 kts | 50° |
| 2026-04-20 18:31 | 46.93466 | -122.54074 | 9237 ft | 292 kts | 50° |
| 2026-04-20 18:31 | 46.94886 | -122.51933 | 8972 ft | 293 kts | 50° |
| 2026-04-20 18:31 | 46.96308 | -122.49794 | 8932 ft | 293 kts | 50° |
| 2026-04-20 18:32 | 46.97728 | -122.47662 | 8944 ft | 293 kts | 48° |
| 2026-04-20 18:32 | 46.99360 | -122.45840 | 8802 ft | 297 kts | 35° |
| 2026-04-20 18:32 | 47.01160 | -122.44316 | 8112 ft | 299 kts | 33° |
| 2026-04-20 18:32 | 47.02965 | -122.42832 | 7608 ft | 294 kts | 32° |
| 2026-04-20 18:33 | 47.04715 | -122.41402 | 7299 ft | 282 kts | 31° |
| 2026-04-20 18:33 | 47.06388 | -122.40049 | 7084 ft | 267 kts | 31° |
| 2026-04-20 18:33 | 47.07963 | -122.38754 | 6849 ft | 253 kts | 32° |
| 2026-04-20 18:33 | 47.09479 | -122.37489 | 6482 ft | 249 kts | 32° |
| 2026-04-20 18:34 | 47.10959 | -122.36250 | 6140 ft | 239 kts | 32° |
| 2026-04-20 18:34 | 47.12376 | -122.35129 | 5959 ft | 222 kts | 25° |
| 2026-04-20 18:34 | 47.13853 | -122.34426 | 5742 ft | 224 kts | 16° |
| 2026-04-20 18:34 | 47.15357 | -122.33859 | 5404 ft | 222 kts | 15° |
| 2026-04-20 18:35 | 47.16858 | -122.33300 | 5104 ft | 222 kts | 15° |
| 2026-04-20 18:35 | 47.18291 | -122.32768 | 5019 ft | 201 kts | 15° |
| 2026-04-20 18:35 | 47.19599 | -122.32416 | 4952 ft | 182 kts | 9° |
| 2026-04-20 18:35 | 47.20813 | -122.32240 | 4785 ft | 171 kts | 5° |
| 2026-04-20 18:36 | 47.22009 | -122.32143 | 4597 ft | 172 kts | 3° |
| 2026-04-20 18:36 | 47.23203 | -122.32081 | 4412 ft | 171 kts | 3° |
| 2026-04-20 18:36 | 47.24388 | -122.31995 | 4214 ft | 171 kts | 2° |
| 2026-04-20 18:36 | 47.25573 | -122.31970 | 3993 ft | 170 kts | 1° |
| 2026-04-20 18:37 | 47.26754 | -122.31957 | 3778 ft | 168 kts | 1° |
| 2026-04-20 18:37 | 47.27915 | -122.31946 | 3537 ft | 167 kts | 1° |
| 2026-04-20 18:37 | 47.29065 | -122.31936 | 3335 ft | 159 kts | 1° |
| 2026-04-20 18:37 | 47.30103 | -122.31928 | 3131 ft | 144 kts | 4° |
| 2026-04-20 18:38 | 47.31109 | -122.31920 | 2909 ft | 144 kts | 4° |
| 2026-04-20 18:38 | 47.32096 | -122.31912 | 2725 ft | 141 kts | 4° |
| 2026-04-20 18:38 | 47.33077 | -122.31904 | 2554 ft | 140 kts | 3° |
| 2026-04-20 18:38 | 47.34046 | -122.31895 | 2376 ft | 139 kts | 4° |
| 2026-04-20 18:39 | 47.34998 | -122.31888 | 2188 ft | 137 kts | 2° |
| 2026-04-20 18:39 | 47.35958 | -122.31879 | 2015 ft | 134 kts | 1° |
| 2026-04-20 18:39 | 47.36888 | -122.31871 | 1833 ft | 132 kts | 1° |
| 2026-04-20 18:39 | 47.37805 | -122.31864 | 1647 ft | 133 kts | 1° |
| 2026-04-20 18:40 | 47.38715 | -122.31857 | 1488 ft | 132 kts | 1° |
| 2026-04-20 18:40 | 47.39635 | -122.31847 | 1300 ft | 131 kts | 0° |
| 2026-04-20 18:40 | 47.40542 | -122.31824 | 1104 ft | 130 kts | 1° |
| 2026-04-20 18:40 | 47.41454 | -122.31802 | 942 ft | 132 kts | 0° |
| 2026-04-20 18:41 | 47.42361 | -122.31819 | 785 ft | 128 kts | 360° |
| 2026-04-20 18:41 | 47.43248 | -122.31828 | 547 ft | 128 kts | 2° |
| 2026-04-20 18:41 | 47.44146 | -122.31812 | 410 ft | 126 kts | 1° |
| 2026-04-20 18:41 | 47.44906 | -122.31804 | 396 ft | 82 kts | 360° |
| 2026-04-20 18:42 | 47.45292 | -122.31766 | 402 ft | 42 kts | 21° |
| 2026-04-20 18:42 | 47.45449 | -122.31630 | 404 ft | 15 kts | 45° |
| 2026-04-20 18:42 | 47.45498 | -122.31481 | 414 ft | 18 kts | 79° |
| 2026-04-20 18:42 | 47.45506 | -122.31280 | 417 ft | 21 kts | 92° |
| 2026-04-20 18:43 | 47.45506 | -122.31074 | 419 ft | 18 kts | 89° |
| 2026-04-20 18:43 | 47.45527 | -122.30894 | 431 ft | 16 kts | 51° |
| 2026-04-20 18:43 | 47.45580 | -122.30772 | 426 ft | 7 kts | 79° |
| 2026-04-20 18:43 | 47.45561 | -122.30695 | 432 ft | 10 kts | 124° |
| 2026-04-20 18:44 | 47.45499 | -122.30628 | 430 ft | 12 kts | 165° |
| 2026-04-20 18:44 | 47.45407 | -122.30624 | 434 ft | 14 kts | 180° |
| 2026-04-20 18:44 | 47.45295 | -122.30625 | 418 ft | 18 kts | 180° |
| 2026-04-20 18:44 | 47.45157 | -122.30627 | 416 ft | 22 kts | 181° |
| 2026-04-20 18:45 | 47.44995 | -122.30629 | 414 ft | 25 kts | 180° |
| 2026-04-20 18:45 | 47.44818 | -122.30629 | 411 ft | 27 kts | 180° |
| 2026-04-20 18:45 | 47.44619 | -122.30630 | 406 ft | 28 kts | 180° |
| 2026-04-20 18:45 | 47.44421 | -122.30631 | 400 ft | 29 kts | 180° |
| 2026-04-20 18:46 | 47.44217 | -122.30633 | 393 ft | 30 kts | 180° |
| 2026-04-20 18:46 | 47.44007 | -122.30635 | 389 ft | 31 kts | 180° |
| 2026-04-20 18:46 | 47.43927 | -122.30624 | 387 ft | 4 kts | 126° |
| 2026-04-20 18:46 | 47.43935 | -122.30564 | 389 ft | 9 kts | 49° |
| 2026-04-20 18:47 | 47.43985 | -122.30484 | 390 ft | 12 kts | 61° |
| 2026-04-20 18:47 | 47.43998 | -122.30345 | 392 ft | 15 kts | 79° |
| 2026-04-20 18:47 | 47.44050 | -122.30197 | 393 ft | 18 kts | 73° |
| 2026-04-20 18:47 | 47.44021 | -122.30062 | 393 ft | 13 kts | 135° |
| 2026-04-20 18:48 | 47.43956 | -122.29970 | 391 ft | 10 kts | 137° |
| 2026-04-20 18:48 | 47.43939 | -122.29914 | 394 ft | 5 kts | 79° |
| 2026-04-20 18:48 | 47.43944 | -122.29897 | 394 ft | 3 kts | 63° |
| 2026-04-20 18:48 | 47.43953 | -122.29871 | 394 ft | 0 kts | 63° |
| 2026-04-20 18:49 | 47.43960 | -122.29853 | 396 ft | 4 kts | 60° |
| 2026-04-20 18:49 | 47.43961 | -122.29851 | 396 ft | 0 kts | 61° |
| 2026-04-20 18:49 | 47.43964 | -122.29844 | 392 ft | 0 kts | 62° |
| 2026-04-20 18:50 | 47.43964 | -122.29843 | 392 ft | 0 kts | 62° |
| 2026-04-20 18:50 | 47.43964 | -122.29842 | 393 ft | 0 kts | 62° |